createdAt,value
2023-11-19T00:01:51.741Z,4.22
2023-11-19T00:04:18.821Z,4.18
2023-11-19T00:06:45.830Z,4.47
2023-11-19T00:09:13.129Z,4.30
2023-11-19T00:11:40.238Z,4.70
2023-11-19T00:14:09.702Z,5.00
2023-11-19T00:16:36.861Z,4.35
2023-11-19T00:19:05.339Z,4.60
2023-11-19T00:21:34.541Z,4.35
2023-11-19T00:24:01.592Z,4.60
2023-11-19T00:26:28.549Z,4.85
2023-11-19T00:28:57.198Z,4.25
2023-11-19T00:31:24.159Z,4.53
2023-11-19T00:33:51.765Z,4.75
2023-11-19T00:36:18.811Z,4.32
2023-11-19T00:38:45.772Z,4.63
2023-11-19T00:41:13.203Z,5.00
2023-11-19T00:43:40.259Z,5.18
2023-11-19T00:46:08.662Z,5.10
2023-11-19T00:48:35.690Z,5.50
2023-11-19T00:51:02.920Z,4.75
2023-11-19T00:53:29.934Z,5.40
2023-11-19T00:55:57.069Z,5.05
2023-11-19T00:58:23.982Z,5.30
2023-11-19T01:00:50.962Z,4.90
2023-11-19T01:03:18.065Z,4.75
2023-11-19T01:05:45.803Z,4.43
2023-11-19T01:08:12.772Z,4.60
2023-11-19T01:10:39.709Z,4.38
2023-11-19T01:13:07.020Z,5.30
2023-11-19T01:15:34.274Z,5.30
2023-11-19T01:18:06.127Z,5.88
2023-11-19T01:23:02.360Z,6.78
2023-11-19T01:25:29.387Z,6.30
2023-11-19T01:27:59.485Z,5.68
2023-11-19T01:30:26.891Z,5.60
2023-11-19T01:32:53.812Z,5.60
2023-11-19T01:35:20.687Z,5.65
2023-11-19T01:37:47.676Z,6.10
2023-11-19T01:40:14.721Z,5.05
2023-11-19T01:42:42.223Z,4.97
2023-11-19T01:45:10.703Z,4.55
2023-11-19T01:47:38.598Z,4.60
2023-11-19T01:50:08.999Z,5.03
2023-11-19T01:52:40.455Z,5.28
2023-11-19T01:55:10.552Z,5.43
2023-11-19T01:57:42.370Z,5.72
2023-11-19T02:00:12.925Z,5.68
2023-11-19T02:02:45.917Z,5.50
2023-11-19T02:05:14.426Z,6.60
2023-11-19T02:07:41.588Z,7.38
2023-11-19T02:10:13.869Z,6.53
2023-11-19T02:12:44.342Z,6.35
2023-11-19T02:15:11.898Z,5.47
2023-11-19T02:17:39.265Z,4.97
2023-11-19T02:20:12.699Z,5.03
2023-11-19T02:22:39.745Z,5.15
2023-11-19T02:25:10.320Z,5.38
2023-11-19T02:27:44.310Z,5.40
2023-11-19T02:30:12.969Z,6.22
2023-11-19T02:32:41.929Z,6.03
2023-11-19T02:35:09.327Z,6.60
2023-11-19T02:37:36.422Z,5.95
2023-11-19T02:40:05.230Z,5.72
2023-11-19T02:42:33.034Z,5.65
2023-11-19T02:45:00.007Z,5.95
2023-11-19T02:47:26.893Z,5.80
2023-11-19T02:49:54.384Z,6.18
2023-11-19T02:52:21.572Z,6.45
2023-11-19T02:54:48.593Z,6.00
2023-11-19T02:59:45.404Z,6.22
2023-11-19T03:02:13.018Z,6.68
2023-11-19T03:04:45.066Z,6.43
2023-11-19T03:07:13.131Z,6.90
2023-11-19T03:09:41.749Z,5.88
2023-11-19T03:12:09.070Z,6.65
2023-11-19T03:14:36.350Z,6.95
2023-11-19T03:17:04.817Z,6.03
2023-11-19T03:19:32.056Z,6.40
2023-11-19T03:22:00.779Z,7.13
2023-11-19T03:24:27.914Z,7.25
2023-11-19T03:26:54.976Z,7.22
2023-11-19T03:29:22.097Z,7.35
2023-11-19T03:31:49.141Z,7.40
2023-11-19T03:34:16.745Z,7.15
2023-11-19T03:36:44.420Z,9.05
2023-11-19T03:39:11.580Z,7.60
2023-11-19T03:41:42.443Z,6.97
2023-11-19T03:44:10.435Z,7.35
2023-11-19T03:46:37.752Z,6.50
2023-11-19T03:49:05.711Z,7.70
2023-11-19T03:51:36.019Z,7.03
2023-11-19T03:54:03.117Z,7.03
2023-11-19T03:56:32.085Z,7.25
2023-11-19T03:58:59.012Z,6.72
2023-11-19T04:01:25.992Z,6.78
2023-11-19T04:03:53.252Z,7.00
2023-11-19T04:06:20.217Z,7.25
2023-11-19T04:08:47.181Z,7.03
2023-11-19T04:11:14.298Z,7.40
2023-11-19T04:13:41.244Z,7.53
2023-11-19T04:16:08.830Z,8.02
2023-11-19T04:18:35.790Z,7.90
2023-11-19T04:21:02.895Z,7.88
2023-11-19T04:23:29.789Z,8.80
2023-11-19T04:26:10.775Z,8.35
2023-11-19T04:28:38.465Z,8.98
2023-11-19T04:31:07.080Z,8.50
2023-11-19T04:33:34.401Z,8.00
2023-11-19T04:36:01.379Z,9.13
2023-11-19T04:38:28.274Z,8.20
2023-11-19T04:40:55.435Z,9.32
2023-11-19T04:43:22.469Z,9.02
2023-11-19T04:45:49.407Z,8.52
2023-11-19T04:48:16.321Z,8.45
2023-11-19T04:50:43.261Z,9.43
2023-11-19T04:53:10.255Z,8.57
2023-11-19T04:55:37.208Z,8.70
2023-11-19T04:58:04.304Z,8.77
2023-11-19T05:00:31.379Z,7.93
2023-11-19T05:02:58.346Z,8.82
2023-11-19T05:05:25.452Z,8.50
2023-11-19T05:07:52.722Z,8.98
2023-11-19T05:10:19.911Z,8.02
2023-11-19T05:12:46.800Z,8.25
2023-11-19T05:15:13.859Z,8.30
2023-11-19T05:17:41.018Z,7.72
2023-11-19T05:20:14.368Z,7.40
2023-11-19T05:22:42.345Z,8.30
2023-11-19T05:25:12.566Z,7.63
2023-11-19T05:27:39.926Z,7.78
2023-11-19T05:30:12.059Z,8.18
2023-11-19T05:32:39.388Z,8.52
2023-11-19T05:35:06.931Z,8.02
2023-11-19T05:37:35.244Z,8.07
2023-11-19T05:40:04.966Z,8.40
2023-11-19T05:42:31.831Z,8.27
2023-11-19T05:44:58.926Z,8.27
2023-11-19T05:47:26.003Z,9.30
2023-11-19T05:49:52.944Z,9.57
2023-11-19T05:52:19.909Z,8.80
2023-11-19T05:54:48.332Z,8.75
2023-11-19T05:57:15.494Z,8.38
2023-11-19T05:59:42.408Z,8.35
2023-11-19T06:02:09.357Z,8.07
2023-11-19T06:04:36.459Z,7.85
2023-11-19T06:07:03.396Z,8.15
2023-11-19T06:09:30.358Z,9.07
2023-11-19T06:11:58.550Z,8.32
2023-11-19T06:14:25.724Z,8.68
2023-11-19T06:16:53.018Z,8.77
2023-11-19T06:19:20.125Z,8.07
2023-11-19T06:21:47.141Z,7.63
2023-11-19T06:24:14.084Z,8.00
2023-11-19T06:26:41.142Z,7.25
2023-11-19T06:29:08.082Z,7.05
2023-11-19T06:31:35.102Z,7.93
2023-11-19T06:34:02.266Z,7.47
2023-11-19T06:36:29.299Z,6.63
2023-11-19T06:38:56.606Z,7.10
2023-11-19T06:41:23.601Z,7.28
2023-11-19T06:43:50.548Z,7.30
2023-11-19T06:46:18.671Z,6.55
2023-11-19T06:48:46.240Z,6.38
2023-11-19T06:51:13.763Z,6.28
2023-11-19T06:53:45.446Z,6.47
2023-11-19T06:56:20.303Z,6.10
2023-11-19T06:58:48.864Z,5.97
2023-11-19T07:01:19.561Z,6.40
2023-11-19T07:03:47.946Z,5.40
2023-11-19T07:06:15.196Z,4.93
2023-11-19T07:08:48.491Z,4.57
2023-11-19T07:11:18.159Z,4.88
2023-11-19T07:13:46.982Z,4.78
2023-11-19T07:16:16.043Z,4.90
2023-11-19T07:18:44.978Z,4.38
2023-11-19T07:21:11.991Z,5.25
2023-11-19T07:23:38.935Z,4.35
2023-11-19T07:26:09.421Z,3.95
2023-11-19T07:28:36.699Z,4.70
2023-11-19T07:31:04.018Z,4.53
2023-11-19T07:33:31.174Z,4.15
2023-11-19T07:35:58.178Z,4.35
2023-11-19T07:38:25.116Z,4.07
2023-11-19T07:43:21.950Z,4.03
2023-11-19T07:45:48.885Z,3.67
2023-11-19T07:48:16.708Z,3.15
2023-11-19T07:50:43.636Z,3.40
2023-11-19T07:53:10.578Z,3.15
2023-11-19T07:55:37.476Z,2.88
2023-11-19T07:58:09.532Z,2.92
2023-11-19T08:00:36.426Z,3.33
2023-11-19T08:03:03.991Z,2.92
2023-11-19T08:05:32.317Z,2.45
2023-11-19T08:08:00.446Z,1.90
2023-11-19T08:10:28.019Z,1.52
2023-11-19T08:12:55.441Z,1.35
2023-11-19T08:17:52.486Z,1.20
2023-11-19T08:20:19.830Z,1.13
2023-11-19T08:22:46.763Z,1.00
2023-11-19T08:25:14.634Z,1.20
2023-11-19T08:27:41.643Z,0.93
2023-11-19T08:30:09.145Z,1.30
2023-11-19T08:32:37.042Z,1.40
2023-11-19T08:35:04.467Z,1.30
2023-11-19T08:37:32.389Z,1.20
2023-11-19T08:39:59.533Z,1.20
2023-11-19T08:42:26.538Z,1.33
2023-11-19T08:44:55.810Z,1.40
2023-11-19T08:47:26.338Z,0.98
2023-11-19T08:52:23.925Z,1.52
2023-11-19T08:54:50.985Z,1.35
2023-11-19T08:57:18.647Z,1.83
2023-11-19T08:59:47.102Z,1.30
2023-11-19T09:02:14.435Z,1.33
2023-11-19T09:04:42.303Z,1.20
2023-11-19T09:07:11.615Z,1.23
2023-11-19T09:09:38.518Z,1.30
2023-11-19T09:12:05.772Z,1.30
2023-11-19T09:14:33.428Z,1.27
2023-11-19T09:17:01.046Z,1.33
2023-11-19T09:19:28.125Z,1.17
2023-11-19T09:21:55.340Z,1.08
2023-11-19T09:24:22.318Z,1.20
2023-11-19T09:26:49.487Z,1.10
2023-11-19T09:29:17.712Z,1.00
2023-11-19T09:31:44.835Z,1.90
2023-11-19T09:34:11.907Z,1.30
2023-11-19T09:36:39.517Z,1.10
2023-11-19T09:39:09.113Z,1.00
2023-11-19T09:41:36.603Z,1.20
2023-11-19T09:44:03.780Z,0.85
2023-11-19T09:46:31.406Z,1.10
2023-11-19T09:49:00.491Z,1.90
2023-11-19T09:51:27.871Z,1.73
2023-11-19T09:53:55.158Z,1.40
2023-11-19T09:56:23.290Z,1.35
2023-11-19T09:58:50.705Z,1.17
2023-11-19T10:03:49.499Z,0.98
2023-11-19T10:06:17.239Z,1.00
2023-11-19T10:08:45.051Z,1.13
2023-11-19T10:11:14.120Z,1.63
2023-11-19T10:13:42.123Z,1.52
2023-11-19T10:16:10.112Z,1.30
2023-11-19T10:18:40.958Z,1.20
2023-11-19T10:21:08.392Z,1.43
2023-11-19T10:23:53.046Z,1.27
2023-11-19T10:26:21.096Z,1.17
2023-11-19T10:28:49.133Z,1.25
2023-11-19T10:31:20.570Z,1.17
2023-11-19T10:33:48.633Z,1.30
2023-11-19T10:36:15.929Z,1.50
2023-11-19T10:38:56.298Z,1.23
2023-11-19T10:41:33.011Z,1.10
2023-11-19T10:44:01.188Z,1.25
2023-11-19T10:46:44.960Z,1.35
2023-11-19T10:49:12.186Z,1.10
2023-11-19T10:51:47.378Z,0.98
2023-11-19T10:54:19.810Z,0.93
2023-11-19T10:56:55.633Z,0.90
2023-11-19T10:59:23.949Z,0.90
2023-11-19T11:01:55.468Z,1.10
2023-11-19T11:04:27.998Z,1.27
2023-11-19T11:07:00.342Z,1.10
2023-11-19T11:09:29.368Z,0.85
2023-11-19T11:11:58.550Z,1.30
2023-11-19T11:14:26.983Z,1.33
2023-11-19T11:16:55.079Z,0.95
2023-11-19T11:19:22.789Z,1.10
2023-11-19T11:21:54.672Z,1.20
2023-11-19T11:27:23.423Z,1.25
2023-11-19T11:30:36.619Z,1.35
2023-11-19T11:33:22.894Z,1.52
2023-11-19T11:36:21.080Z,1.40
2023-11-19T11:38:51.123Z,1.35
2023-11-19T11:41:26.305Z,1.35
2023-11-19T11:43:57.102Z,1.38
2023-11-19T11:46:33.693Z,1.70
2023-11-19T11:49:02.709Z,1.30
2023-11-19T11:51:45.319Z,1.70
2023-11-19T11:54:27.874Z,1.45
2023-11-19T11:57:13.929Z,1.42
2023-11-19T11:59:47.990Z,1.35
2023-11-19T12:02:22.366Z,1.38
2023-11-19T12:04:52.187Z,1.40
2023-11-19T12:07:22.717Z,1.20
2023-11-19T12:10:12.893Z,1.15
2023-11-19T12:12:41.986Z,1.50
2023-11-19T12:15:12.934Z,1.58
2023-11-19T12:17:51.318Z,1.55
2023-11-19T12:25:20.475Z,1.92
2023-11-19T12:27:54.513Z,1.60
2023-11-19T12:30:26.622Z,1.80
2023-11-19T12:32:55.599Z,1.90
2023-11-19T12:35:23.871Z,1.60
2023-11-19T12:37:51.887Z,1.58
2023-11-19T12:40:25.177Z,1.55
2023-11-19T12:42:54.386Z,2.08
2023-11-19T12:45:22.748Z,1.90
2023-11-19T12:47:50.988Z,1.70
2023-11-19T12:50:20.010Z,1.65
2023-11-19T12:52:59.009Z,2.20
2023-11-19T12:55:31.486Z,1.70
2023-11-19T12:58:00.069Z,1.80
2023-11-19T13:00:28.608Z,1.50
2023-11-19T13:02:57.397Z,1.80
2023-11-19T13:05:34.674Z,1.98
2023-11-19T13:08:06.003Z,1.70
2023-11-19T13:10:34.562Z,1.83
2023-11-19T13:13:06.535Z,1.88
2023-11-19T13:15:36.889Z,1.80
2023-11-19T13:18:04.345Z,1.95
2023-11-19T13:20:31.423Z,2.35
2023-11-19T13:23:02.910Z,2.22
2023-11-19T13:25:30.920Z,2.10
2023-11-19T13:27:58.477Z,2.35
2023-11-19T13:30:27.576Z,2.20
2023-11-19T13:32:56.635Z,2.20
2023-11-19T13:35:24.195Z,2.60
2023-11-19T13:37:52.916Z,2.30
2023-11-19T13:40:20.937Z,2.40
2023-11-19T13:42:48.078Z,2.65
2023-11-19T13:45:16.701Z,2.45
2023-11-19T13:47:45.945Z,2.38
2023-11-19T13:50:21.240Z,2.22
2023-11-19T13:52:48.802Z,2.70
2023-11-19T13:55:16.173Z,2.60
2023-11-19T13:57:44.629Z,2.78
2023-11-19T14:00:23.922Z,3.13
2023-11-19T14:02:51.204Z,2.63
2023-11-19T14:05:37.760Z,2.88
2023-11-19T14:08:23.370Z,2.88
2023-11-19T14:10:53.231Z,3.00
2023-11-19T14:13:20.397Z,2.53
2023-11-19T14:15:49.860Z,2.53
2023-11-19T14:18:18.107Z,2.72
2023-11-19T14:20:45.449Z,2.78
2023-11-19T14:23:12.522Z,2.70
2023-11-19T14:25:39.875Z,2.78
2023-11-19T14:28:07.495Z,2.70
2023-11-19T14:30:35.810Z,2.60
2023-11-19T14:33:04.437Z,2.90
2023-11-19T14:35:31.828Z,2.70
2023-11-19T14:37:58.904Z,2.90
2023-11-19T14:42:55.923Z,3.17
2023-11-19T14:45:23.683Z,2.80
2023-11-19T14:47:50.977Z,2.95
2023-11-19T14:50:18.205Z,2.50
2023-11-19T14:52:45.190Z,2.80
2023-11-19T14:55:12.683Z,2.65
2023-11-19T14:57:40.484Z,2.45
2023-11-19T15:00:14.187Z,2.78
2023-11-19T15:02:42.446Z,2.85
2023-11-19T15:05:13.092Z,2.63
2023-11-19T15:07:41.182Z,2.78
2023-11-19T15:10:13.464Z,3.20
2023-11-19T15:12:42.649Z,3.00
2023-11-19T15:15:36.209Z,2.70
2023-11-19T15:18:03.719Z,2.80
2023-11-19T15:20:31.226Z,2.58
2023-11-19T15:23:01.095Z,2.72
2023-11-19T15:25:28.103Z,2.45
2023-11-19T15:27:55.688Z,2.42
2023-11-19T15:30:23.317Z,2.08
2023-11-19T15:32:50.472Z,2.50
2023-11-19T15:35:17.823Z,2.50
2023-11-19T15:37:45.354Z,2.28
2023-11-19T15:40:14.068Z,1.90
2023-11-19T15:42:42.441Z,2.47
2023-11-19T15:45:10.651Z,2.35
2023-11-19T15:47:37.877Z,2.20
2023-11-19T15:50:06.969Z,2.00
2023-11-19T15:52:35.467Z,2.17
2023-11-19T15:55:02.446Z,2.20
2023-11-19T15:57:29.491Z,2.42
2023-11-19T15:59:56.620Z,2.42
2023-11-19T16:02:23.933Z,1.90
2023-11-19T16:04:51.452Z,2.03
2023-11-19T16:07:18.725Z,1.92
2023-11-19T16:09:45.976Z,2.00
2023-11-19T16:12:13.130Z,2.50
2023-11-19T16:14:40.208Z,2.08
2023-11-19T16:17:07.469Z,2.30
2023-11-19T16:19:36.157Z,1.95
2023-11-19T16:22:11.152Z,1.73
2023-11-19T16:24:38.603Z,2.08
2023-11-19T16:27:06.036Z,2.13
2023-11-19T16:29:33.138Z,1.65
2023-11-19T16:32:00.299Z,2.03
2023-11-19T16:34:27.382Z,1.90
2023-11-19T16:36:54.849Z,2.03
2023-11-19T16:39:23.031Z,1.85
2023-11-19T16:41:50.203Z,1.80
2023-11-19T16:44:17.285Z,2.00
2023-11-19T16:46:45.048Z,2.10
2023-11-19T16:49:12.065Z,1.90
2023-11-19T16:51:39.259Z,2.45
2023-11-19T16:54:06.516Z,1.98
2023-11-19T16:56:34.494Z,2.00
2023-11-19T16:59:02.342Z,1.77
2023-11-19T17:01:29.514Z,2.05
2023-11-19T17:03:56.964Z,2.20
2023-11-19T17:06:25.057Z,2.30
2023-11-19T17:08:52.805Z,2.13
2023-11-19T17:11:20.020Z,2.13
2023-11-19T17:13:47.333Z,1.80
2023-11-19T17:16:14.423Z,1.98
2023-11-19T17:18:41.470Z,2.33
2023-11-19T17:21:08.623Z,1.73
2023-11-19T17:23:35.609Z,1.90
2023-11-19T17:26:02.941Z,1.63
2023-11-19T17:28:29.872Z,2.10
2023-11-19T17:30:56.699Z,1.92
2023-11-19T17:33:23.877Z,2.20
2023-11-19T17:35:51.389Z,1.98
2023-11-19T17:40:48.390Z,1.77
2023-11-19T17:43:16.847Z,2.30
2023-11-19T17:45:44.541Z,2.38
2023-11-19T17:48:11.934Z,2.33
2023-11-19T17:50:39.043Z,2.10
2023-11-19T17:53:06.033Z,2.00
2023-11-19T17:55:33.083Z,2.30
2023-11-19T17:58:00.019Z,2.40
2023-11-19T18:00:28.950Z,1.80
2023-11-19T18:02:56.563Z,2.35
2023-11-19T18:05:24.202Z,2.20
2023-11-19T18:07:51.398Z,2.58
2023-11-19T18:10:18.917Z,1.88
2023-11-19T18:12:46.806Z,1.92
2023-11-19T18:15:14.635Z,2.13
2023-11-19T18:17:43.446Z,2.85
2023-11-19T18:20:16.356Z,2.28
2023-11-19T18:22:49.212Z,2.10
2023-11-19T18:25:18.734Z,2.80
2023-11-19T18:27:46.772Z,2.40
2023-11-19T18:30:16.160Z,2.17
2023-11-19T18:32:45.313Z,2.15
2023-11-19T18:35:13.789Z,2.70
2023-11-19T18:37:41.736Z,3.08
2023-11-19T18:40:10.597Z,2.92
2023-11-19T18:42:37.723Z,2.70
2023-11-19T18:45:05.453Z,2.40
2023-11-19T18:47:34.546Z,2.42
2023-11-19T18:50:01.689Z,2.20
2023-11-19T18:52:29.287Z,2.00
2023-11-19T18:54:56.428Z,1.98
2023-11-19T18:57:23.397Z,2.10
2023-11-19T18:59:50.947Z,2.45
2023-11-19T19:02:18.146Z,2.25
2023-11-19T19:04:45.987Z,2.20
2023-11-19T19:07:13.287Z,2.72
2023-11-19T19:09:41.265Z,2.00
2023-11-19T19:12:09.838Z,2.53
2023-11-19T19:14:37.048Z,1.98
2023-11-19T19:17:04.887Z,2.08
2023-11-19T19:19:32.496Z,2.33
2023-11-19T19:21:59.575Z,2.17
2023-11-19T19:24:26.564Z,2.15
2023-11-19T19:26:53.502Z,2.85
2023-11-19T19:29:21.234Z,2.83
2023-11-19T19:31:48.165Z,2.30
2023-11-19T19:34:15.067Z,3.00
2023-11-19T19:36:42.116Z,1.90
2023-11-19T19:39:15.031Z,2.22
2023-11-19T19:41:42.868Z,2.20
2023-11-19T19:44:10.362Z,2.85
2023-11-19T19:46:38.421Z,2.17
2023-11-19T19:49:09.250Z,2.50
2023-11-19T19:51:36.700Z,3.13
2023-11-19T19:54:04.961Z,2.40
2023-11-19T19:56:31.895Z,2.58
2023-11-19T19:58:58.972Z,2.63
2023-11-19T20:01:26.835Z,2.60
2023-11-19T20:03:53.992Z,2.30
2023-11-19T20:06:22.527Z,2.72
2023-11-19T20:08:50.174Z,2.50
2023-11-19T20:11:17.704Z,2.40
2023-11-19T20:13:44.671Z,2.63
2023-11-19T20:16:11.720Z,2.50
2023-11-19T20:18:38.722Z,2.30
2023-11-19T20:21:09.313Z,2.45
2023-11-19T20:23:37.385Z,2.35
2023-11-19T20:26:04.586Z,2.05
2023-11-19T20:28:32.079Z,2.17
2023-11-19T20:30:59.111Z,2.08
2023-11-19T20:33:26.283Z,2.20
2023-11-19T20:35:53.325Z,2.30
2023-11-19T20:38:20.322Z,2.85
2023-11-19T20:40:47.401Z,2.22
2023-11-19T20:43:15.090Z,2.50
2023-11-19T20:45:43.910Z,3.13
2023-11-19T20:48:13.181Z,3.10
2023-11-19T20:50:40.099Z,2.35
2023-11-19T20:53:09.317Z,2.10
2023-11-19T20:55:36.705Z,3.05
2023-11-19T20:58:04.560Z,2.53
2023-11-19T21:00:31.548Z,2.42
2023-11-19T21:02:59.565Z,2.42
2023-11-19T21:05:26.568Z,2.42
2023-11-19T21:07:53.672Z,2.60
2023-11-19T21:10:20.626Z,2.88
2023-11-19T21:12:51.158Z,2.95
2023-11-19T21:15:18.618Z,2.67
2023-11-19T21:17:45.729Z,2.92
2023-11-19T21:20:13.344Z,3.08
2023-11-19T21:22:40.538Z,2.65
2023-11-19T21:25:07.789Z,2.83
2023-11-19T21:27:34.877Z,2.55
2023-11-19T21:30:02.067Z,2.53
2023-11-19T21:32:29.040Z,3.00
2023-11-19T21:34:55.966Z,3.17
2023-11-19T21:37:22.989Z,2.88
2023-11-19T21:39:50.083Z,2.70
2023-11-19T21:42:17.436Z,2.72
2023-11-19T21:44:44.360Z,2.88
2023-11-19T21:47:11.529Z,2.92
2023-11-19T21:49:39.194Z,3.13
2023-11-19T21:52:07.440Z,4.03
2023-11-19T21:54:35.473Z,3.00
2023-11-19T21:57:03.710Z,2.67
2023-11-19T21:59:30.773Z,3.33
2023-11-19T22:01:57.758Z,2.85
2023-11-19T22:04:26.316Z,3.40
2023-11-19T22:06:54.471Z,3.03
2023-11-19T22:09:23.084Z,2.90
2023-11-19T22:11:50.461Z,3.22
2023-11-19T22:14:17.530Z,2.88
2023-11-19T22:16:46.571Z,3.20
2023-11-19T22:19:14.340Z,2.83
2023-11-19T22:21:41.499Z,3.25
2023-11-19T22:24:10.449Z,2.58
2023-11-19T22:26:38.554Z,2.90
2023-11-19T22:29:06.243Z,3.20
2023-11-19T22:31:36.320Z,2.80
2023-11-19T22:34:05.874Z,3.63
2023-11-19T22:36:33.412Z,3.42
2023-11-19T22:39:00.633Z,2.92
2023-11-19T22:41:27.512Z,3.08
2023-11-19T22:43:54.462Z,3.10
2023-11-19T22:46:22.329Z,3.60
2023-11-19T22:48:49.546Z,2.63
2023-11-19T22:51:16.822Z,3.72
2023-11-19T22:53:44.215Z,3.10
2023-11-19T22:56:12.690Z,2.92
2023-11-19T22:58:39.675Z,2.80
2023-11-19T23:01:08.066Z,3.42
2023-11-19T23:03:35.384Z,3.08
2023-11-19T23:06:02.517Z,3.20
2023-11-19T23:08:29.601Z,3.13
2023-11-19T23:10:56.540Z,3.38
2023-11-19T23:13:25.286Z,3.05
2023-11-19T23:15:52.440Z,3.08
2023-11-19T23:18:19.589Z,3.15
2023-11-19T23:20:47.214Z,3.58
2023-11-19T23:23:15.437Z,3.25
2023-11-19T23:25:42.701Z,3.10
2023-11-19T23:28:09.847Z,3.70
2023-11-19T23:30:37.145Z,2.92
2023-11-19T23:33:04.567Z,3.53
2023-11-19T23:35:33.644Z,3.90
2023-11-19T23:38:00.689Z,3.55
2023-11-19T23:40:27.777Z,3.08
2023-11-19T23:42:55.600Z,3.10
2023-11-19T23:45:22.683Z,3.28
2023-11-19T23:47:49.626Z,3.70
2023-11-19T23:50:17.375Z,3.83
2023-11-19T23:52:44.309Z,3.45
2023-11-19T23:55:12.492Z,3.38
2023-11-19T23:57:41.423Z,3.22
